Time;durP1;ratioP1;P1;durP2;ratioP2;P2;SDS_P1;SDS_P2;PMS_P1;PMS_P2;Temp;Humidity;BMP_temperature;BMP_pressure;BME280_temperature;BME280_humidity;BME280_pressure;Samples;Min_cycle;Max_cycle;Signal;HPM_P1;HPM_P2
2021/12/09 00:02:13;;;;;;;69.20;24.63;;;0.90;99.90;;;;;;5038363;28;20029;-95
2021/12/09 00:04:39;;;;;;;71.28;27.48;;;0.90;99.90;;;;;;5038811;28;20044;-94
2021/12/09 00:07:05;;;;;;;107.25;30.33;;;1.00;99.90;;;;;;5041228;28;20036;-91
2021/12/09 00:09:31;;;;;;;104.20;29.08;;;0.90;99.90;;;;;;5042804;28;20029;-94
2021/12/09 00:11:58;;;;;;;110.32;29.13;;;0.90;99.90;;;;;;5041553;28;20032;-94
2021/12/09 00:14:27;;;;;;;107.45;29.02;;;0.90;99.90;;;;;;5042188;28;20135;-94
2021/12/09 00:16:57;;;;;;;82.78;27.52;;;0.90;99.90;;;;;;5046587;28;20043;-94
2021/12/09 00:19:23;;;;;;;101.65;28.95;;;0.90;99.90;;;;;;5048611;28;20440;-93
2021/12/09 00:21:49;;;;;;;73.65;27.52;;;0.80;99.90;;;;;;5055549;28;20025;-94
2021/12/09 00:24:14;;;;;;;112.32;29.52;;;0.80;99.90;;;;;;5047733;28;20025;-93
2021/12/09 00:26:43;;;;;;;325.50;35.53;;;0.80;99.90;;;;;;5037512;28;20090;-93
2021/12/09 00:29:09;;;;;;;78.53;27.50;;;0.80;99.90;;;;;;5052542;28;20045;-93
2021/12/09 00:31:35;;;;;;;88.75;27.95;;;0.80;99.90;;;;;;5050018;28;20034;-94
2021/12/09 00:34:01;;;;;;;99.10;28.15;;;0.80;99.90;;;;;;5036777;28;20044;-94
2021/12/09 00:36:31;;;;;;;99.40;29.27;;;0.80;99.90;;;;;;5043755;28;20117;-94
2021/12/09 00:38:58;;;;;;;68.65;24.65;;;0.90;99.90;;;;;;5054489;28;20132;-94
2021/12/09 00:41:24;;;;;;;75.60;26.00;;;0.90;99.90;;;;;;5037119;28;20053;-93
2021/12/09 00:43:50;;;;;;;72.57;27.48;;;0.90;99.90;;;;;;5037699;28;20111;-94
2021/12/09 00:46:16;;;;;;;63.67;26.70;;;0.90;99.90;;;;;;5040649;28;20040;-94
2021/12/09 00:48:43;;;;;;;74.30;28.92;;;0.90;99.90;;;;;;5036643;28;20477;-93
2021/12/09 00:51:10;;;;;;;74.72;29.02;;;0.90;99.90;;;;;;5038651;28;20112;-94
2021/12/09 00:53:36;;;;;;;71.88;28.52;;;0.90;99.90;;;;;;5022661;28;20041;-94
2021/12/09 00:56:04;;;;;;;63.63;26.73;;;1.00;99.90;;;;;;5036087;28;20032;-94
2021/12/09 00:58:30;;;;;;;68.72;27.27;;;1.00;99.90;;;;;;5037139;28;20104;-93
2021/12/09 01:00:55;;;;;;;62.03;24.77;;;1.00;99.90;;;;;;5033172;28;20089;-94
2021/12/09 01:03:21;;;;;;;59.85;24.75;;;1.00;99.90;;;;;;5044127;28;20025;-94
2021/12/09 01:05:47;;;;;;;65.53;25.30;;;1.00;99.90;;;;;;5064441;28;20028;-92
2021/12/09 01:08:13;;;;;;;56.30;25.35;;;1.10;99.90;;;;;;5035898;28;20464;-93
2021/12/09 01:10:39;;;;;;;52.97;25.08;;;1.10;99.90;;;;;;5034731;28;20032;-94
2021/12/09 01:13:06;;;;;;;64.50;27.17;;;1.00;99.90;;;;;;5043215;28;20159;-92
2021/12/09 01:15:32;;;;;;;72.68;26.30;;;1.00;99.90;;;;;;5036850;28;20029;-93
2021/12/09 01:17:58;;;;;;;60.33;26.42;;;1.00;99.90;;;;;;5035360;28;20392;-93
2021/12/09 01:20:25;;;;;;;60.10;25.80;;;1.00;99.90;;;;;;5044678;28;20021;-91
2021/12/09 01:22:56;;;;;;;59.28;24.75;;;0.90;99.90;;;;;;5039521;28;20031;-93
2021/12/09 01:25:23;;;;;;;;;;;0.90;99.90;;;;;;5034410;28;20079;-93
2021/12/09 01:27:52;;;;;;;58.47;24.52;;;0.90;99.90;;;;;;5057226;28;19915;-93
2021/12/09 01:30:20;;;;;;;58.85;25.27;;;0.90;99.90;;;;;;5050593;28;20048;-92
2021/12/09 01:32:53;;;;;;;54.75;24.17;;;0.90;99.90;;;;;;5039565;28;20028;-94
2021/12/09 01:35:48;;;;;;;55.33;26.48;;;0.90;99.90;;;;;;5035312;28;20090;-93
2021/12/09 01:38:15;;;;;;;49.40;24.23;;;1.00;99.90;;;;;;5029556;28;20087;-92
2021/12/09 01:40:41;;;;;;;49.83;23.27;;;1.00;99.90;;;;;;5025781;28;20113;-93
2021/12/09 01:43:07;;;;;;;57.13;25.98;;;0.90;99.90;;;;;;5034762;28;20025;-92
2021/12/09 01:45:33;;;;;;;63.13;26.25;;;0.90;99.90;;;;;;5034690;28;20503;-93
2021/12/09 01:47:59;;;;;;;52.53;24.00;;;1.00;99.90;;;;;;5034566;28;20027;-93
2021/12/09 01:50:26;;;;;;;173.05;31.30;;;1.00;99.90;;;;;;5035085;28;20044;-92
2021/12/09 01:52:52;;;;;;;79.65;25.83;;;0.90;99.90;;;;;;5045546;28;20040;-93
2021/12/09 01:55:19;;;;;;;138.48;30.38;;;0.80;99.90;;;;;;5042472;28;20033;-93
2021/12/09 01:57:50;;;;;;;112.80;29.58;;;0.80;99.90;;;;;;5036884;28;20071;-93
2021/12/09 02:00:22;;;;;;;127.40;31.15;;;0.80;99.90;;;;;;5052257;28;20033;-93
2021/12/09 02:02:50;;;;;;;175.68;34.33;;;0.80;99.90;;;;;;5033937;28;20021;-92
2021/12/09 02:05:16;;;;;;;72.85;29.55;;;0.70;99.90;;;;;;5035824;28;20029;-92
2021/12/09 02:07:42;;;;;;;105.50;31.65;;;0.80;99.90;;;;;;5041679;28;20029;-93
2021/12/09 02:10:12;;;;;;;90.55;29.30;;;0.80;99.90;;;;;;5043655;28;20029;-92
2021/12/09 02:12:38;;;;;;;73.22;28.88;;;0.80;99.90;;;;;;5051461;28;20025;-92
2021/12/09 02:15:05;;;;;;;79.10;27.67;;;0.80;99.90;;;;;;5033869;28;20023;-91
2021/12/09 02:17:32;;;;;;;88.65;26.90;;;0.80;99.90;;;;;;5034276;28;20017;-92
2021/12/09 02:20:01;;;;;;;93.05;29.15;;;0.80;99.90;;;;;;5040394;28;20040;-93
2021/12/09 02:22:28;;;;;;;80.70;26.67;;;0.80;99.90;;;;;;5033764;28;20087;-93
2021/12/09 02:24:55;;;;;;;72.80;26.70;;;0.90;99.90;;;;;;5035267;28;20493;-94
2021/12/09 02:27:22;;;;;;;63.55;25.60;;;0.80;99.90;;;;;;5036599;28;20052;-92
2021/12/09 02:29:52;;;;;;;69.57;27.63;;;0.90;99.90;;;;;;5041364;28;20074;-92
2021/12/09 02:32:18;;;;;;;78.93;28.77;;;0.90;99.90;;;;;;5034063;28;20054;-92
2021/12/09 02:34:44;;;;;;;155.20;28.67;;;0.90;99.90;;;;;;5052765;28;20905;-92
2021/12/09 02:37:13;;;;;;;75.07;25.25;;;0.90;99.90;;;;;;5051389;28;20061;-92
2021/12/09 02:39:39;;;;;;;95.53;28.65;;;0.80;99.90;;;;;;5032942;28;20112;-92
2021/12/09 02:42:05;;;;;;;393.80;41.15;;;0.80;99.90;;;;;;5036651;28;20078;-91
2021/12/09 02:44:31;;;;;;;136.70;29.33;;;0.80;99.90;;;;;;5052064;28;20025;-92
2021/12/09 02:46:56;;;;;;;79.60;28.65;;;0.70;99.90;;;;;;5033459;28;20039;-92
2021/12/09 02:49:28;;;;;;;102.30;28.58;;;0.70;99.90;;;;;;5050631;28;20103;-93
2021/12/09 02:51:54;;;;;;;;;;;0.70;99.90;;;;;;5042116;28;20033;-93
2021/12/09 02:54:22;;;;;;;70.28;26.90;;;0.70;99.90;;;;;;5040973;28;19912;-92
2021/12/09 02:56:50;;;;;;;78.13;28.70;;;0.80;99.90;;;;;;5031308;28;20025;-92
2021/12/09 02:59:16;;;;;;;80.55;29.10;;;0.70;99.90;;;;;;5033785;28;20047;-94
2021/12/09 03:01:57;;;;;;;70.35;26.83;;;0.70;99.90;;;;;;5062441;28;20025;-93
2021/12/09 03:04:25;;;;;;;85.63;32.00;;;0.70;99.90;;;;;;5033785;28;20108;-90
2021/12/09 03:06:54;;;;;;;77.45;29.42;;;0.70;99.90;;;;;;5032103;28;20032;-92
2021/12/09 03:09:20;;;;;;;96.90;33.20;;;0.60;99.90;;;;;;5028367;28;20040;-92
2021/12/09 03:11:54;;;;;;;90.25;33.25;;;0.60;99.90;;;;;;5056676;28;20029;-93
2021/12/09 03:14:22;;;;;;;92.22;32.72;;;0.60;99.90;;;;;;5047751;28;20112;-91
2021/12/09 03:16:48;;;;;;;90.00;31.45;;;0.60;99.90;;;;;;5035171;28;20036;-93
2021/12/09 03:19:14;;;;;;;90.80;32.88;;;0.60;99.90;;;;;;5037358;28;20025;-92
2021/12/09 03:21:42;;;;;;;87.93;31.38;;;0.60;99.90;;;;;;5041765;28;20075;-92
2021/12/09 03:24:12;;;;;;;88.68;34.40;;;0.60;99.90;;;;;;5037202;28;20108;-92
2021/12/09 03:26:49;;;;;;;86.57;32.20;;;0.60;99.90;;;;;;5037530;28;20043;-93
2021/12/09 03:29:17;;;;;;;84.28;31.25;;;0.60;99.90;;;;;;5057219;28;20040;-93
2021/12/09 03:31:44;;;;;;;93.78;32.90;;;0.60;99.90;;;;;;5046186;28;20033;-93
2021/12/09 03:34:11;;;;;;;89.53;31.45;;;0.60;99.90;;;;;;5040956;28;20029;-92
2021/12/09 03:36:37;;;;;;;84.47;33.15;;;0.70;99.90;;;;;;5066055;28;20044;-92
2021/12/09 03:39:06;;;;;;;83.70;30.90;;;0.70;99.90;;;;;;5038161;28;20905;-92
2021/12/09 03:41:32;;;;;;;86.97;30.98;;;0.70;99.90;;;;;;5026183;28;20028;-92
2021/12/09 03:43:58;;;;;;;83.45;30.45;;;0.70;99.90;;;;;;5031960;28;20033;-92
2021/12/09 03:46:24;;;;;;;87.13;30.73;;;0.70;99.90;;;;;;5049270;28;20467;-91
2021/12/09 03:48:50;;;;;;;86.18;31.52;;;0.70;99.90;;;;;;5036837;28;20017;-94
2021/12/09 03:51:15;;;;;;;84.75;31.90;;;0.70;99.90;;;;;;5036451;28;20039;-93
2021/12/09 03:53:41;;;;;;;84.22;30.58;;;0.70;99.90;;;;;;5047009;28;20021;-93
2021/12/09 03:56:07;;;;;;;92.35;33.20;;;0.70;99.90;;;;;;5039366;28;20033;-92
2021/12/09 03:58:32;;;;;;;89.88;29.98;;;0.60;99.90;;;;;;5039855;28;20040;-93
2021/12/09 04:00:58;;;;;;;85.25;32.78;;;0.60;99.90;;;;;;5036449;28;20040;-91
2021/12/09 04:03:24;;;;;;;80.20;29.25;;;0.60;99.90;;;;;;5025708;28;20088;-92
2021/12/09 04:05:50;;;;;;;88.28;29.48;;;0.60;99.90;;;;;;5036458;28;20079;-93
2021/12/09 04:08:17;;;;;;;78.35;29.58;;;0.70;99.90;;;;;;5036585;28;20061;-93
2021/12/09 04:10:44;;;;;;;78.25;28.70;;;0.70;99.90;;;;;;5036111;28;20082;-92
2021/12/09 04:13:10;;;;;;;89.20;31.58;;;0.60;99.90;;;;;;5036234;28;20119;-93
2021/12/09 04:15:37;;;;;;;82.57;31.23;;;0.60;99.90;;;;;;5036099;28;20128;-92
2021/12/09 04:18:03;;;;;;;79.85;30.02;;;0.60;99.90;;;;;;5054226;28;20100;-94
2021/12/09 04:20:29;;;;;;;90.70;31.60;;;0.60;99.90;;;;;;5036802;28;20552;-92
2021/12/09 04:22:55;;;;;;;84.07;31.13;;;0.60;99.90;;;;;;5035907;28;20060;-93
2021/12/09 04:25:22;;;;;;;86.13;29.85;;;0.60;99.90;;;;;;5035795;28;20053;-92
2021/12/09 04:27:52;;;;;;;83.82;30.45;;;0.60;99.90;;;;;;5035678;28;20025;-92
2021/12/09 04:30:19;;;;;;;94.07;31.40;;;0.60;99.90;;;;;;5036914;28;20489;-92
2021/12/09 04:32:45;;;;;;;89.82;32.35;;;0.60;99.90;;;;;;5047248;28;20396;-91
2021/12/09 04:35:12;;;;;;;89.45;33.35;;;0.60;99.90;;;;;;5034582;28;20100;-92
2021/12/09 04:37:39;;;;;;;90.18;31.88;;;0.60;99.90;;;;;;5033670;28;20026;-92
2021/12/09 04:40:08;;;;;;;93.85;32.47;;;0.60;99.90;;;;;;5053752;28;20577;-91
2021/12/09 04:42:34;;;;;;;94.03;33.35;;;0.60;99.90;;;;;;5035438;28;20032;-92
2021/12/09 04:44:59;;;;;;;93.30;32.63;;;0.60;99.90;;;;;;5035752;28;20025;-92
2021/12/09 04:47:25;;;;;;;90.28;32.85;;;0.60;99.90;;;;;;5036209;28;20405;-92
2021/12/09 04:49:51;;;;;;;85.75;31.63;;;0.60;99.90;;;;;;5035553;28;20021;-92
2021/12/09 04:52:17;;;;;;;82.72;30.13;;;0.70;99.90;;;;;;5052309;28;20505;-92
2021/12/09 04:54:43;;;;;;;91.40;31.58;;;0.70;99.90;;;;;;5044160;28;20025;-92
2021/12/09 04:57:11;;;;;;;95.28;34.15;;;0.60;99.90;;;;;;5037779;28;20033;-93
2021/12/09 04:59:36;;;;;;;93.55;33.13;;;0.60;99.90;;;;;;5034607;28;20026;-92
2021/12/09 05:02:03;;;;;;;84.15;34.90;;;0.70;99.90;;;;;;5034888;28;20032;-92
2021/12/09 05:04:29;;;;;;;94.13;33.63;;;0.70;99.90;;;;;;5042327;28;20396;-93
2021/12/09 05:06:55;;;;;;;87.50;32.42;;;0.70;99.90;;;;;;5038393;28;20025;-93
2021/12/09 05:09:21;;;;;;;85.15;33.28;;;0.70;99.90;;;;;;5032572;28;20029;-92
2021/12/09 05:14:13;;;;;;;89.03;32.55;;;0.70;99.90;;;;;;5051240;28;20044;-92
2021/12/09 05:16:39;;;;;;;83.70;33.22;;;0.70;99.90;;;;;;5052627;28;20037;-95
2021/12/09 05:19:06;;;;;;;89.32;34.15;;;0.70;99.90;;;;;;5050570;28;20496;-91
2021/12/09 05:21:39;;;;;;;89.57;31.27;;;0.70;99.90;;;;;;5057969;28;20028;-93
2021/12/09 05:24:07;;;;;;;86.60;31.48;;;0.70;99.90;;;;;;5034533;28;20021;-91
2021/12/09 05:26:41;;;;;;;84.53;33.10;;;0.70;99.90;;;;;;5038495;28;20029;-92
2021/12/09 05:29:06;;;;;;;86.25;32.38;;;0.70;99.90;;;;;;5041912;28;20037;-92
2021/12/09 05:34:16;;;;;;;88.78;31.65;;;0.80;99.90;;;;;;5050635;28;20040;-92
2021/12/09 05:36:42;;;;;;;90.20;32.20;;;0.80;99.90;;;;;;5051607;28;20120;-93
2021/12/09 05:39:10;;;;;;;95.80;34.78;;;0.80;99.90;;;;;;5034319;28;20025;-92
2021/12/09 05:41:36;;;;;;;90.63;33.60;;;0.80;99.90;;;;;;5034884;28;20536;-91
2021/12/09 05:44:03;;;;;;;99.75;37.05;;;0.80;99.90;;;;;;5038974;28;20119;-91
2021/12/09 05:46:29;;;;;;;94.25;33.90;;;0.70;99.90;;;;;;5031841;28;20124;-92
2021/12/09 05:48:55;;;;;;;93.07;33.78;;;0.70;99.90;;;;;;5034192;28;20049;-92
2021/12/09 05:51:25;;;;;;;90.47;33.35;;;0.70;99.90;;;;;;5034810;28;20029;-92
2021/12/09 05:53:51;;;;;;;103.25;32.40;;;0.70;99.90;;;;;;5034337;28;20024;-92
2021/12/09 05:56:17;;;;;;;104.00;35.13;;;0.70;99.90;;;;;;5030701;28;20037;-94
2021/12/09 05:58:43;;;;;;;110.05;36.10;;;0.70;99.90;;;;;;5026262;28;20385;-92
2021/12/09 06:01:09;;;;;;;111.30;35.90;;;0.70;99.90;;;;;;5035494;28;20025;-93
2021/12/09 06:03:35;;;;;;;106.75;36.72;;;0.70;99.90;;;;;;5035974;28;20522;-92
2021/12/09 06:06:00;;;;;;;116.13;39.13;;;0.70;99.90;;;;;;5034635;28;20123;-92
2021/12/09 06:08:27;;;;;;;108.97;35.78;;;0.70;99.90;;;;;;5027082;28;20400;-92
2021/12/09 06:10:53;;;;;;;108.32;32.67;;;0.70;99.90;;;;;;5033902;28;20029;-92
2021/12/09 06:13:21;;;;;;;106.95;34.60;;;0.80;99.90;;;;;;5030781;28;20030;-93
2021/12/09 06:15:47;;;;;;;118.88;40.22;;;0.80;99.90;;;;;;5033224;28;20388;-92
2021/12/09 06:18:13;;;;;;;120.20;37.85;;;0.80;99.90;;;;;;5033665;28;20117;-91
2021/12/09 06:20:39;;;;;;;127.72;47.90;;;0.80;99.90;;;;;;5041955;28;20025;-92
2021/12/09 06:23:05;;;;;;;109.05;35.35;;;0.80;99.90;;;;;;5033652;28;20428;-90
2021/12/09 06:25:31;;;;;;;109.00;35.40;;;0.80;99.90;;;;;;5052924;28;20025;-92
2021/12/09 06:27:57;;;;;;;104.05;37.05;;;0.80;99.90;;;;;;5033269;28;20366;-91
2021/12/09 06:30:23;;;;;;;101.78;34.40;;;0.90;99.90;;;;;;5047902;28;20034;-92
2021/12/09 06:32:49;;;;;;;108.72;32.70;;;0.90;99.90;;;;;;5060822;28;20380;-92
2021/12/09 06:35:17;;;;;;;97.07;31.83;;;0.90;99.90;;;;;;5033814;28;20028;-91
2021/12/09 06:37:45;;;;;;;84.38;31.02;;;0.90;99.90;;;;;;5033021;28;20036;-92
2021/12/09 06:40:14;;;;;;;94.00;29.75;;;1.00;99.90;;;;;;5033047;28;20025;-92
2021/12/09 06:42:41;;;;;;;91.82;32.35;;;1.00;99.90;;;;;;5033066;28;20029;-92
2021/12/09 06:45:08;;;;;;;88.63;31.35;;;1.00;99.90;;;;;;5034999;28;20623;-92
2021/12/09 06:47:33;;;;;;;104.18;37.20;;;1.00;99.90;;;;;;5032370;28;20029;-92
2021/12/09 06:49:59;;;;;;;96.03;34.80;;;1.00;99.90;;;;;;5029781;28;20168;-92
2021/12/09 06:52:25;;;;;;;74.15;32.13;;;1.00;99.90;;;;;;5050989;28;20519;-92
2021/12/09 06:54:51;;;;;;;80.70;30.88;;;1.00;99.90;;;;;;5037126;28;20029;-92
2021/12/09 06:57:16;;;;;;;78.18;29.90;;;1.10;99.90;;;;;;5040645;28;20032;-92
2021/12/09 06:59:42;;;;;;;81.15;30.20;;;1.00;99.90;;;;;;5036521;28;20029;-92
2021/12/09 07:02:08;;;;;;;68.72;27.48;;;1.10;99.90;;;;;;5042049;28;20052;-93
2021/12/09 07:04:34;;;;;;;87.18;29.63;;;1.10;99.90;;;;;;5035548;28;20033;-92
2021/12/09 07:07:00;;;;;;;83.20;29.95;;;1.10;99.90;;;;;;5033868;28;20037;-93
2021/12/09 07:09:28;;;;;;;92.32;32.47;;;1.00;99.90;;;;;;5039693;28;20029;-92
2021/12/09 07:11:55;;;;;;;95.72;33.08;;;1.00;99.90;;;;;;5042339;28;20035;-91
2021/12/09 07:14:22;;;;;;;84.30;30.20;;;1.00;99.90;;;;;;5042286;28;20067;-91
2021/12/09 07:16:47;;;;;;;96.20;31.88;;;1.00;99.90;;;;;;5032727;28;20037;-92
2021/12/09 07:19:13;;;;;;;89.68;30.83;;;1.00;99.90;;;;;;5036909;28;20040;-92
2021/12/09 07:21:39;;;;;;;92.68;31.48;;;1.00;99.90;;;;;;5057670;28;20033;-94
2021/12/09 07:24:05;;;;;;;83.32;31.15;;;1.00;99.90;;;;;;5045881;28;20442;-91
2021/12/09 07:26:32;;;;;;;86.53;33.78;;;1.00;99.90;;;;;;5033175;28;20147;-92
2021/12/09 07:28:58;;;;;;;87.15;30.50;;;1.00;99.90;;;;;;5032200;28;20037;-92
2021/12/09 07:31:24;;;;;;;96.10;31.90;;;1.10;99.90;;;;;;5030323;28;20033;-91
2021/12/09 07:33:51;;;;;;;97.18;32.45;;;1.10;99.90;;;;;;5038277;28;20039;-92
2021/12/09 07:36:16;;;;;;;84.93;28.77;;;1.10;99.90;;;;;;5029176;28;20255;-92
2021/12/09 07:38:45;;;;;;;98.35;34.20;;;1.00;99.90;;;;;;5030997;28;20572;-92
2021/12/09 07:41:12;;;;;;;99.53;33.22;;;1.00;99.90;;;;;;5030976;28;20037;-92
2021/12/09 07:43:37;;;;;;;100.30;32.17;;;1.00;99.90;;;;;;5039774;28;20108;-93
2021/12/09 07:46:03;;;;;;;104.95;33.22;;;0.90;99.90;;;;;;5042618;28;20029;-92
2021/12/09 07:48:29;;;;;;;101.57;32.75;;;1.00;99.90;;;;;;5032744;28;20032;-92
2021/12/09 07:50:54;;;;;;;114.95;33.15;;;1.00;99.90;;;;;;5032680;28;20017;-92
2021/12/09 07:53:22;;;;;;;101.55;31.50;;;1.10;99.90;;;;;;5032885;28;20036;-92
2021/12/09 07:55:48;;;;;;;100.90;31.88;;;1.10;99.90;;;;;;5032743;28;20033;-92
2021/12/09 07:58:14;;;;;;;106.00;31.85;;;1.10;99.90;;;;;;5032720;28;20564;-92
2021/12/09 08:00:40;;;;;;;93.20;31.80;;;1.20;99.90;;;;;;5037022;28;20101;-93
2021/12/09 08:03:06;;;;;;;97.28;30.38;;;1.20;99.90;;;;;;5038975;28;20141;-90
2021/12/09 08:05:34;;;;;;;106.57;31.63;;;1.30;99.90;;;;;;5036444;28;21579;-92
2021/12/09 08:07:59;;;;;;;93.90;30.00;;;1.30;99.90;;;;;;5037722;28;20045;-91
2021/12/09 08:10:26;;;;;;;87.30;27.10;;;1.40;99.90;;;;;;5036266;28;20025;-90
2021/12/09 08:12:53;;;;;;;78.90;26.95;;;1.40;99.90;;;;;;5027761;28;20472;-91
2021/12/09 08:15:18;;;;;;;86.00;28.63;;;1.50;99.90;;;;;;5033875;28;20384;-91
2021/12/09 08:17:57;;;;;;;88.90;28.58;;;1.60;99.90;;;;;;5031808;28;20496;-91
2021/12/09 08:20:23;;;;;;;74.80;27.05;;;1.60;99.90;;;;;;5034534;28;20442;-92
2021/12/09 08:22:48;;;;;;;105.32;36.67;;;1.60;99.90;;;;;;5049906;28;20020;-92
2021/12/09 08:25:14;;;;;;;108.40;41.08;;;1.60;99.90;;;;;;5037297;28;20489;-91
2021/12/09 08:27:43;;;;;;;118.88;43.47;;;1.70;99.90;;;;;;5034600;28;20393;-92
2021/12/09 08:30:11;;;;;;;109.70;40.80;;;1.70;99.90;;;;;;5038484;28;20159;-93
2021/12/09 08:32:37;;;;;;;106.57;40.08;;;1.80;99.90;;;;;;5049169;28;20020;-92
2021/12/09 08:35:04;;;;;;;110.88;40.90;;;1.80;99.90;;;;;;5039883;28;20379;-92
2021/12/09 08:37:30;;;;;;;99.95;36.90;;;1.90;99.90;;;;;;5038147;28;20040;-92
2021/12/09 08:39:56;;;;;;;102.85;39.60;;;1.90;99.90;;;;;;5049329;28;20082;-93
2021/12/09 08:42:24;;;;;;;115.28;41.72;;;1.90;99.90;;;;;;5057430;28;20086;-93
2021/12/09 08:44:50;;;;;;;166.85;64.18;;;2.00;99.90;;;;;;5043804;28;20074;-92
2021/12/09 08:47:16;;;;;;;117.30;38.35;;;2.00;99.90;;;;;;5037484;28;20023;-92
2021/12/09 08:49:44;;;;;;;104.88;30.42;;;2.10;99.90;;;;;;5041599;28;20025;-93
2021/12/09 08:52:09;;;;;;;92.55;27.05;;;2.10;99.90;;;;;;5047908;28;20040;-92
2021/12/09 08:54:35;;;;;;;99.88;28.15;;;2.20;99.90;;;;;;5036670;28;20029;-92
2021/12/09 08:57:03;;;;;;;102.75;27.65;;;2.20;99.90;;;;;;5036677;28;20472;-93
2021/12/09 08:59:30;;;;;;;91.75;27.73;;;2.30;99.90;;;;;;5039703;28;20013;-92
2021/12/09 09:01:55;;;;;;;122.57;29.02;;;2.30;99.90;;;;;;5041322;28;20021;-95
2021/12/09 09:04:21;;;;;;;103.40;28.27;;;2.40;99.90;;;;;;5050168;28;20444;-95
2021/12/09 09:06:56;;;;;;;94.85;25.10;;;2.40;99.90;;;;;;5021673;28;20516;-93
2021/12/09 09:09:24;;;;;;;266.00;29.63;;;2.40;99.90;;;;;;5040964;28;20024;-93
2021/12/09 09:11:51;;;;;;;82.93;25.10;;;2.40;99.90;;;;;;5053646;28;20027;-94
2021/12/09 09:14:16;;;;;;;98.28;23.55;;;2.40;99.90;;;;;;5047591;28;20084;-94
2021/12/09 09:16:43;;;;;;;101.90;23.48;;;2.50;99.90;;;;;;5045743;28;20088;-93
2021/12/09 09:19:09;;;;;;;120.10;24.92;;;2.40;99.90;;;;;;5039478;28;20040;-93
2021/12/09 09:21:35;;;;;;;381.08;38.17;;;2.30;99.90;;;;;;5026811;28;20040;-93
2021/12/09 09:24:03;;;;;;;242.63;30.50;;;2.20;99.90;;;;;;5032092;28;20021;-93
2021/12/09 09:27:01;;;;;;;106.18;25.50;;;2.00;99.90;;;;;;5036519;28;20035;-92
2021/12/09 09:29:37;;;;;;;;;;;;;;;;;;;;;
2021/12/09 09:32:04;;;;;;;124.65;31.27;;;2.00;99.90;;;;;;5051641;28;20503;-93
2021/12/09 09:34:30;;;;;;;108.30;30.58;;;2.00;99.90;;;;;;5036177;28;20388;-92
2021/12/09 09:37:04;;;;;;;82.97;28.25;;;1.90;99.90;;;;;;5026611;28;20052;-93
2021/12/09 09:39:35;;;;;;;87.50;29.77;;;1.90;99.90;;;;;;5026513;28;20384;-93
2021/12/09 09:42:31;;;;;;;92.13;28.58;;;2.00;99.90;;;;;;5050440;28;20025;-94
2021/12/09 09:44:59;;;;;;;80.75;27.75;;;2.00;99.90;;;;;;5039242;28;20025;-93
2021/12/09 09:47:27;;;;;;;82.97;26.98;;;2.00;99.90;;;;;;5036362;28;20100;-92
2021/12/09 09:49:56;;;;;;;73.18;27.58;;;2.10;99.90;;;;;;5035715;28;20041;-93
2021/12/09 09:52:30;;;;;;;65.35;25.95;;;2.20;99.90;;;;;;5032198;28;20584;-93
2021/12/09 09:55:00;;;;;;;65.63;23.13;;;2.30;99.90;;;;;;5017579;28;20028;-94
2021/12/09 09:57:26;;;;;;;70.15;25.35;;;2.40;99.90;;;;;;5021919;28;20385;-93
2021/12/09 09:59:55;;;;;;;62.25;25.10;;;2.40;99.90;;;;;;5039137;28;20025;-93
2021/12/09 10:02:27;;;;;;;67.72;24.67;;;2.50;99.90;;;;;;5016721;28;20021;-93
2021/12/09 10:05:14;;;;;;;54.72;23.20;;;2.60;99.90;;;;;;5032579;28;20120;-93
2021/12/09 10:07:41;;;;;;;59.45;23.63;;;2.60;99.90;;;;;;5038458;28;20021;-93
2021/12/09 10:10:08;;;;;;;53.47;23.98;;;2.70;99.90;;;;;;5026849;28;20101;-93
2021/12/09 10:12:34;;;;;;;57.55;24.50;;;2.80;99.90;;;;;;5042126;28;20389;-93
2021/12/09 10:15:00;;;;;;;62.38;27.15;;;2.90;99.90;;;;;;5038972;28;20025;-94
2021/12/09 10:17:28;;;;;;;56.83;22.83;;;2.90;99.90;;;;;;5044633;28;20056;-94
2021/12/09 10:19:57;;;;;;;56.05;25.27;;;3.00;99.90;;;;;;5041760;28;20021;-93
2021/12/09 10:22:28;;;;;;;63.58;25.92;;;3.00;99.90;;;;;;5051922;28;20024;-93
2021/12/09 10:24:55;;;;;;;54.95;24.92;;;3.00;99.90;;;;;;5030890;28;20013;-93
2021/12/09 10:27:29;;;;;;;54.35;23.20;;;3.00;99.90;;;;;;5045045;28;20469;-94
2021/12/09 10:30:15;;;;;;;60.22;25.30;;;3.00;99.90;;;;;;5038004;28;20028;-93
2021/12/09 10:32:42;;;;;;;50.78;24.25;;;3.10;99.90;;;;;;5046008;28;20013;-94
2021/12/09 10:35:17;;;;;;;58.97;25.88;;;3.10;99.90;;;;;;5039252;28;20021;-95
2021/12/09 10:37:45;;;;;;;59.75;25.88;;;3.10;99.90;;;;;;5053159;28;20033;-95
2021/12/09 10:40:13;;;;;;;45.47;23.48;;;3.10;99.90;;;;;;5051655;28;20425;-94
2021/12/09 10:42:45;;;;;;;49.50;22.95;;;3.00;99.90;;;;;;5049146;28;20036;-95
2021/12/09 10:45:25;;;;;;;46.50;22.67;;;3.00;99.90;;;;;;5049614;28;20031;-94
2021/12/09 10:48:01;;;;;;;56.42;24.77;;;3.00;99.90;;;;;;5049082;28;20021;-94
2021/12/09 10:53:19;;;;;;;50.03;24.25;;;2.90;99.90;;;;;;5063481;28;20057;-95
2021/12/09 10:56:02;;;;;;;58.60;24.63;;;2.80;99.90;;;;;;5043239;28;20026;-93
2021/12/09 10:58:34;;;;;;;50.03;23.85;;;2.80;99.90;;;;;;5052540;28;20021;-94
2021/12/09 11:01:07;;;;;;;45.13;22.15;;;2.80;99.90;;;;;;5051526;28;20025;-94
2021/12/09 11:03:32;;;;;;;43.17;20.77;;;2.80;99.90;;;;;;5046728;28;20021;-93
2021/12/09 11:06:02;;;;;;;44.00;21.65;;;2.80;99.90;;;;;;5048482;28;20029;-94
2021/12/09 11:08:44;;;;;;;48.95;22.08;;;2.70;99.90;;;;;;5034166;28;20029;-94
2021/12/09 11:11:16;;;;;;;51.30;23.63;;;2.70;99.90;;;;;;5039686;28;20022;-93
2021/12/09 11:13:57;;;;;;;44.05;22.30;;;2.70;99.90;;;;;;5030044;28;20025;-93
2021/12/09 11:16:38;;;;;;;49.60;22.35;;;2.70;99.90;;;;;;5043495;28;20128;-93
2021/12/09 11:19:12;;;;;;;48.58;21.85;;;2.70;99.90;;;;;;5058134;28;20053;-92
2021/12/09 11:21:43;;;;;;;52.42;23.20;;;2.60;99.90;;;;;;5034664;28;20035;-93
2021/12/09 11:24:15;;;;;;;48.42;22.75;;;2.60;99.90;;;;;;5037989;28;20765;-93
2021/12/09 11:27:01;;;;;;;48.40;23.02;;;2.60;99.90;;;;;;5021074;28;20025;-92
2021/12/09 11:30:07;;;;;;;53.20;23.00;;;2.60;99.90;;;;;;5042332;28;20078;-93
2021/12/09 11:32:41;;;;;;;52.03;22.27;;;2.60;99.90;;;;;;5040215;28;20055;-92
2021/12/09 11:35:26;;;;;;;46.50;22.70;;;2.60;99.90;;;;;;5037649;28;20485;-91
2021/12/09 11:38:11;;;;;;;39.80;21.20;;;2.70;99.90;;;;;;5028224;28;20030;-92
2021/12/09 11:40:44;;;;;;;40.08;20.42;;;2.70;99.90;;;;;;5029255;28;20064;-93
2021/12/09 11:43:18;;;;;;;39.35;21.58;;;2.80;99.90;;;;;;5038743;28;20413;-92
2021/12/09 11:45:46;;;;;;;34.60;19.13;;;2.80;99.90;;;;;;5046760;28;20028;-93
2021/12/09 11:48:14;;;;;;;35.80;19.77;;;2.90;99.90;;;;;;5037318;28;20061;-92
2021/12/09 11:50:47;;;;;;;39.33;19.25;;;3.00;99.90;;;;;;5037250;28;20021;-93
2021/12/09 11:53:17;;;;;;;39.75;20.95;;;3.10;99.90;;;;;;5044988;28;20515;-92
2021/12/09 11:55:49;;;;;;;40.35;18.33;;;3.10;99.90;;;;;;5034168;28;20033;-93
2021/12/09 12:12:46;;;;;;;43.25;18.60;;;3.40;99.90;;;;;;5058290;28;20075;-92
2021/12/09 12:24:20;;;;;;;32.33;17.50;;;3.50;99.90;;;;;;5049395;28;20021;-92
2021/12/09 12:29:57;;;;;;;46.08;20.88;;;3.50;99.90;;;;;;5055267;28;20510;-92
2021/12/09 12:38:02;;;;;;;38.85;19.95;;;3.40;99.90;;;;;;5056822;28;20046;-93
2021/12/09 12:40:31;;;;;;;39.97;20.38;;;3.40;99.90;;;;;;5036013;28;20102;-93
2021/12/09 12:43:10;;;;;;;30.02;17.65;;;3.30;99.90;;;;;;5032815;28;20037;-93
2021/12/09 12:49:06;;;;;;;23.42;15.57;;;3.30;99.90;;;;;;5059568;28;20385;-93
2021/12/09 12:51:45;;;;;;;24.90;15.02;;;3.30;99.90;;;;;;5034154;28;20033;-93
2021/12/09 12:54:18;;;;;;;19.95;14.07;;;3.30;99.90;;;;;;5036102;28;20401;-93
2021/12/09 12:56:56;;;;;;;23.27;15.63;;;3.30;99.90;;;;;;5034256;28;20037;-93
2021/12/09 12:59:33;;;;;;;17.70;14.13;;;3.30;99.90;;;;;;5040265;28;20024;-93
2021/12/09 13:02:04;;;;;;;19.17;14.65;;;3.30;99.90;;;;;;5026716;28;20522;-92
2021/12/09 13:04:39;;;;;;;29.92;17.45;;;3.30;99.90;;;;;;5038315;28;20094;-93
2021/12/09 13:16:35;;;;;;;30.00;16.77;;;3.20;99.90;;;;;;4989786;28;20039;-93
2021/12/09 13:19:14;;;;;;;31.50;15.80;;;3.10;99.90;;;;;;5008772;28;20022;-93
2021/12/09 13:21:45;;;;;;;23.08;14.93;;;3.10;99.90;;;;;;5031356;28;20025;-94
2021/12/09 13:27:27;;;;;;;19.08;13.40;;;3.10;99.90;;;;;;5054410;28;20481;-94
2021/12/09 13:39:07;;;;;;;24.73;15.55;;;3.10;99.90;;;;;;5043948;28;20037;-93
2021/12/09 13:49:34;;;;;;;25.92;15.23;;;3.00;99.90;;;;;;5053843;28;20401;-92
2021/12/09 13:55:18;;;;;;;24.73;16.00;;;3.00;99.90;;;;;;5052266;28;20053;-91
2021/12/09 13:57:49;;;;;;;29.05;15.60;;;3.00;99.90;;;;;;5032372;28;20033;-93
2021/12/09 14:00:24;;;;;;;23.95;15.57;;;3.00;99.90;;;;;;5033380;28;20028;-92